sensor_id;sensor_type;location;lat;lon;timestamp;P1;durP1;ratioP1;P2;durP2;ratioP2
30872;SDS011;17579;42.690;2.586;2023-10-13T00:02:49;11.43;;;10.02;;
30872;SDS011;17579;42.690;2.586;2023-10-13T00:05:14;11.40;;;10.30;;
30872;SDS011;17579;42.690;2.586;2023-10-13T00:07:41;11.57;;;10.48;;
30872;SDS011;17579;42.690;2.586;2023-10-13T00:10:09;11.40;;;10.30;;
30872;SDS011;17579;42.690;2.586;2023-10-13T00:12:38;12.15;;;10.38;;
30872;SDS011;17579;42.690;2.586;2023-10-13T00:15:04;11.50;;;10.43;;
30872;SDS011;17579;42.690;2.586;2023-10-13T00:17:38;11.65;;;10.55;;
30872;SDS011;17579;42.690;2.586;2023-10-13T00:20:04;11.15;;;10.02;;
30872;SDS011;17579;42.690;2.586;2023-10-13T00:22:37;11.90;;;10.85;;
30872;SDS011;17579;42.690;2.586;2023-10-13T00:25:06;11.85;;;10.85;;
30872;SDS011;17579;42.690;2.586;2023-10-13T00:27:51;10.85;;;9.38;;
30872;SDS011;17579;42.690;2.586;2023-10-13T00:30:19;11.57;;;10.48;;
30872;SDS011;17579;42.690;2.586;2023-10-13T00:32:46;10.27;;;9.27;;
30872;SDS011;17579;42.690;2.586;2023-10-13T00:35:18;11.73;;;10.52;;
30872;SDS011;17579;42.690;2.586;2023-10-13T00:37:50;11.35;;;10.25;;
30872;SDS011;17579;42.690;2.586;2023-10-13T00:40:20;11.35;;;10.23;;
30872;SDS011;17579;42.690;2.586;2023-10-13T00:42:47;11.25;;;10.15;;
30872;SDS011;17579;42.690;2.586;2023-10-13T00:45:14;13.52;;;11.85;;
30872;SDS011;17579;42.690;2.586;2023-10-13T00:47:51;12.27;;;11.18;;
30872;SDS011;17579;42.690;2.586;2023-10-13T00:50:23;14.35;;;12.63;;
30872;SDS011;17579;42.690;2.586;2023-10-13T00:52:56;14.60;;;13.10;;
30872;SDS011;17579;42.690;2.586;2023-10-13T00:55:25;15.25;;;13.80;;
30872;SDS011;17579;42.690;2.586;2023-10-13T00:57:52;13.82;;;12.52;;
30872;SDS011;17579;42.690;2.586;2023-10-13T01:00:22;14.45;;;13.23;;
30872;SDS011;17579;42.690;2.586;2023-10-13T01:03:10;15.13;;;13.75;;
30872;SDS011;17579;42.690;2.586;2023-10-13T01:05:37;14.73;;;13.32;;
30872;SDS011;17579;42.690;2.586;2023-10-13T01:08:05;16.83;;;14.80;;
30872;SDS011;17579;42.690;2.586;2023-10-13T01:10:35;15.95;;;14.25;;
30872;SDS011;17579;42.690;2.586;2023-10-13T01:13:03;15.30;;;13.73;;
30872;SDS011;17579;42.690;2.586;2023-10-13T01:15:32;16.50;;;14.77;;
30872;SDS011;17579;42.690;2.586;2023-10-13T01:20:31;16.23;;;14.73;;
30872;SDS011;17579;42.690;2.586;2023-10-13T01:23:10;16.73;;;15.10;;
30872;SDS011;17579;42.690;2.586;2023-10-13T01:25:45;17.08;;;15.10;;
30872;SDS011;17579;42.690;2.586;2023-10-13T01:31:24;16.25;;;14.65;;
30872;SDS011;17579;42.690;2.586;2023-10-13T01:33:52;17.38;;;15.45;;
30872;SDS011;17579;42.690;2.586;2023-10-13T01:36:24;17.17;;;15.40;;
30872;SDS011;17579;42.690;2.586;2023-10-13T01:41:42;18.63;;;16.63;;
30872;SDS011;17579;42.690;2.586;2023-10-13T01:44:10;20.00;;;17.83;;
30872;SDS011;17579;42.690;2.586;2023-10-13T01:46:37;22.20;;;17.15;;
30872;SDS011;17579;42.690;2.586;2023-10-13T01:49:08;21.48;;;19.23;;
30872;SDS011;17579;42.690;2.586;2023-10-13T01:51:34;25.55;;;18.85;;
30872;SDS011;17579;42.690;2.586;2023-10-13T01:54:00;20.48;;;18.38;;
30872;SDS011;17579;42.690;2.586;2023-10-13T01:56:28;19.55;;;17.60;;
30872;SDS011;17579;42.690;2.586;2023-10-13T01:59:06;22.58;;;17.75;;
30872;SDS011;17579;42.690;2.586;2023-10-13T02:01:34;21.83;;;19.17;;
30872;SDS011;17579;42.690;2.586;2023-10-13T02:04:07;22.40;;;19.33;;
30872;SDS011;17579;42.690;2.586;2023-10-13T02:06:36;21.92;;;19.83;;
30872;SDS011;17579;42.690;2.586;2023-10-13T02:09:09;20.98;;;18.88;;
30872;SDS011;17579;42.690;2.586;2023-10-13T02:11:39;20.85;;;18.83;;
30872;SDS011;17579;42.690;2.586;2023-10-13T02:14:26;19.80;;;17.67;;
30872;SDS011;17579;42.690;2.586;2023-10-13T02:16:52;20.60;;;18.38;;
30872;SDS011;17579;42.690;2.586;2023-10-13T02:19:37;18.80;;;17.00;;
30872;SDS011;17579;42.690;2.586;2023-10-13T02:22:05;17.85;;;16.20;;
30872;SDS011;17579;42.690;2.586;2023-10-13T02:24:38;17.75;;;15.95;;
30872;SDS011;17579;42.690;2.586;2023-10-13T02:27:10;18.35;;;16.65;;
30872;SDS011;17579;42.690;2.586;2023-10-13T02:29:39;19.75;;;17.65;;
30872;SDS011;17579;42.690;2.586;2023-10-13T02:32:24;18.38;;;16.30;;
30872;SDS011;17579;42.690;2.586;2023-10-13T02:34:51;18.33;;;16.52;;
30872;SDS011;17579;42.690;2.586;2023-10-13T02:37:17;18.08;;;16.27;;
30872;SDS011;17579;42.690;2.586;2023-10-13T02:39:44;17.58;;;15.73;;
30872;SDS011;17579;42.690;2.586;2023-10-13T02:42:15;16.15;;;14.57;;
30872;SDS011;17579;42.690;2.586;2023-10-13T02:44:47;16.45;;;14.68;;
30872;SDS011;17579;42.690;2.586;2023-10-13T02:47:19;17.42;;;15.73;;
30872;SDS011;17579;42.690;2.586;2023-10-13T02:49:52;17.83;;;15.93;;
30872;SDS011;17579;42.690;2.586;2023-10-13T02:52:17;17.35;;;15.55;;
30872;SDS011;17579;42.690;2.586;2023-10-13T02:54:43;19.27;;;17.25;;
30872;SDS011;17579;42.690;2.586;2023-10-13T02:57:13;17.33;;;15.65;;
30872;SDS011;17579;42.690;2.586;2023-10-13T02:59:41;17.75;;;16.10;;
30872;SDS011;17579;42.690;2.586;2023-10-13T03:02:08;19.27;;;17.27;;
30872;SDS011;17579;42.690;2.586;2023-10-13T03:04:44;18.42;;;16.58;;
30872;SDS011;17579;42.690;2.586;2023-10-13T03:10:34;18.02;;;16.15;;
30872;SDS011;17579;42.690;2.586;2023-10-13T03:13:08;17.65;;;15.77;;
30872;SDS011;17579;42.690;2.586;2023-10-13T03:15:34;19.33;;;17.27;;
30872;SDS011;17579;42.690;2.586;2023-10-13T03:18:02;17.90;;;16.15;;
30872;SDS011;17579;42.690;2.586;2023-10-13T03:20:30;18.38;;;16.45;;
30872;SDS011;17579;42.690;2.586;2023-10-13T03:22:58;17.42;;;15.70;;
30872;SDS011;17579;42.690;2.586;2023-10-13T03:25:24;18.05;;;16.25;;
30872;SDS011;17579;42.690;2.586;2023-10-13T03:28:07;18.13;;;15.73;;
30872;SDS011;17579;42.690;2.586;2023-10-13T03:30:37;18.90;;;16.95;;
30872;SDS011;17579;42.690;2.586;2023-10-13T03:33:08;19.05;;;15.65;;
30872;SDS011;17579;42.690;2.586;2023-10-13T03:35:58;18.63;;;16.80;;
30872;SDS011;17579;42.690;2.586;2023-10-13T03:38:31;18.60;;;16.60;;
30872;SDS011;17579;42.690;2.586;2023-10-13T03:41:01;18.02;;;15.70;;
30872;SDS011;17579;42.690;2.586;2023-10-13T03:43:48;19.05;;;16.75;;
30872;SDS011;17579;42.690;2.586;2023-10-13T03:46:32;17.55;;;15.85;;
30872;SDS011;17579;42.690;2.586;2023-10-13T03:48:58;18.00;;;16.10;;
30872;SDS011;17579;42.690;2.586;2023-10-13T03:51:26;18.85;;;16.95;;
30872;SDS011;17579;42.690;2.586;2023-10-13T03:53:53;15.93;;;14.50;;
30872;SDS011;17579;42.690;2.586;2023-10-13T03:56:23;17.00;;;15.20;;
30872;SDS011;17579;42.690;2.586;2023-10-13T03:59:12;16.92;;;15.13;;
30872;SDS011;17579;42.690;2.586;2023-10-13T04:01:38;15.73;;;14.10;;
30872;SDS011;17579;42.690;2.586;2023-10-13T04:04:05;16.50;;;14.80;;
30872;SDS011;17579;42.690;2.586;2023-10-13T04:06:36;15.55;;;14.02;;
30872;SDS011;17579;42.690;2.586;2023-10-13T04:09:03;16.60;;;15.00;;
30872;SDS011;17579;42.690;2.586;2023-10-13T04:11:29;15.95;;;14.27;;
30872;SDS011;17579;42.690;2.586;2023-10-13T04:13:58;15.90;;;14.25;;
30872;SDS011;17579;42.690;2.586;2023-10-13T04:16:26;15.65;;;14.10;;
30872;SDS011;17579;42.690;2.586;2023-10-13T04:18:52;16.70;;;15.02;;
30872;SDS011;17579;42.690;2.586;2023-10-13T04:21:19;15.00;;;13.50;;
30872;SDS011;17579;42.690;2.586;2023-10-13T04:24:05;15.88;;;14.27;;
30872;SDS011;17579;42.690;2.586;2023-10-13T04:26:51;15.52;;;14.02;;
30872;SDS011;17579;42.690;2.586;2023-10-13T04:29:18;15.23;;;13.50;;
30872;SDS011;17579;42.690;2.586;2023-10-13T04:32:07;14.55;;;13.02;;
30872;SDS011;17579;42.690;2.586;2023-10-13T04:34:41;14.95;;;13.55;;
30872;SDS011;17579;42.690;2.586;2023-10-13T04:37:12;14.32;;;12.93;;
30872;SDS011;17579;42.690;2.586;2023-10-13T04:39:54;14.65;;;13.25;;
30872;SDS011;17579;42.690;2.586;2023-10-13T04:45:35;18.63;;;13.85;;
30872;SDS011;17579;42.690;2.586;2023-10-13T04:48:01;14.65;;;13.27;;
30872;SDS011;17579;42.690;2.586;2023-10-13T04:53:48;14.90;;;13.40;;
30872;SDS011;17579;42.690;2.586;2023-10-13T04:56:14;15.15;;;13.65;;
30872;SDS011;17579;42.690;2.586;2023-10-13T04:59:01;13.68;;;12.38;;
30872;SDS011;17579;42.690;2.586;2023-10-13T05:01:30;14.50;;;13.18;;
30872;SDS011;17579;42.690;2.586;2023-10-13T05:03:59;14.70;;;13.20;;
30872;SDS011;17579;42.690;2.586;2023-10-13T05:06:26;14.38;;;12.88;;
30872;SDS011;17579;42.690;2.586;2023-10-13T05:09:01;15.18;;;13.68;;
30872;SDS011;17579;42.690;2.586;2023-10-13T05:11:28;14.98;;;13.48;;
30872;SDS011;17579;42.690;2.586;2023-10-13T05:13:54;14.98;;;12.65;;
30872;SDS011;17579;42.690;2.586;2023-10-13T05:16:21;14.52;;;13.23;;
30872;SDS011;17579;42.690;2.586;2023-10-13T05:18:47;14.80;;;13.32;;
30872;SDS011;17579;42.690;2.586;2023-10-13T05:21:28;14.90;;;13.38;;
30872;SDS011;17579;42.690;2.586;2023-10-13T05:23:55;14.73;;;13.23;;
30872;SDS011;17579;42.690;2.586;2023-10-13T05:26:24;15.23;;;13.65;;
30872;SDS011;17579;42.690;2.586;2023-10-13T05:28:50;14.57;;;13.30;;
30872;SDS011;17579;42.690;2.586;2023-10-13T05:31:17;13.55;;;12.20;;
30872;SDS011;17579;42.690;2.586;2023-10-13T05:34:19;13.40;;;12.05;;
30872;SDS011;17579;42.690;2.586;2023-10-13T05:36:41;14.02;;;11.50;;
30872;SDS011;17579;42.690;2.586;2023-10-13T05:39:17;12.13;;;10.82;;
30872;SDS011;17579;42.690;2.586;2023-10-13T05:42:06;12.00;;;10.75;;
30872;SDS011;17579;42.690;2.586;2023-10-13T05:44:32;12.98;;;11.68;;
30872;SDS011;17579;42.690;2.586;2023-10-13T05:46:59;12.30;;;11.10;;
30872;SDS011;17579;42.690;2.586;2023-10-13T05:49:40;13.02;;;11.73;;
30872;SDS011;17579;42.690;2.586;2023-10-13T05:52:15;12.52;;;11.23;;
30872;SDS011;17579;42.690;2.586;2023-10-13T05:54:51;11.93;;;10.73;;
30872;SDS011;17579;42.690;2.586;2023-10-13T05:57:18;12.75;;;11.60;;
30872;SDS011;17579;42.690;2.586;2023-10-13T05:59:46;12.70;;;11.50;;
30872;SDS011;17579;42.690;2.586;2023-10-13T06:02:13;12.25;;;11.05;;
30872;SDS011;17579;42.690;2.586;2023-10-13T06:04:43;12.60;;;11.40;;
30872;SDS011;17579;42.690;2.586;2023-10-13T06:07:10;12.52;;;11.25;;
30872;SDS011;17579;42.690;2.586;2023-10-13T06:09:39;13.02;;;11.65;;
30872;SDS011;17579;42.690;2.586;2023-10-13T06:12:11;12.57;;;11.38;;
30872;SDS011;17579;42.690;2.586;2023-10-13T06:14:37;13.20;;;10.75;;
30872;SDS011;17579;42.690;2.586;2023-10-13T06:17:13;12.25;;;10.90;;
30872;SDS011;17579;42.690;2.586;2023-10-13T06:19:42;13.50;;;10.45;;
30872;SDS011;17579;42.690;2.586;2023-10-13T06:24:55;12.30;;;11.15;;
30872;SDS011;17579;42.690;2.586;2023-10-13T06:27:22;12.55;;;11.35;;
30872;SDS011;17579;42.690;2.586;2023-10-13T06:30:08;12.10;;;11.00;;
30872;SDS011;17579;42.690;2.586;2023-10-13T06:32:37;11.75;;;10.63;;
30872;SDS011;17579;42.690;2.586;2023-10-13T06:35:08;12.32;;;11.10;;
30872;SDS011;17579;42.690;2.586;2023-10-13T06:37:34;12.65;;;11.38;;
30872;SDS011;17579;42.690;2.586;2023-10-13T06:45:50;12.13;;;10.93;;
30872;SDS011;17579;42.690;2.586;2023-10-13T06:48:25;12.82;;;11.63;;
30872;SDS011;17579;42.690;2.586;2023-10-13T06:51:00;12.80;;;10.48;;
30872;SDS011;17579;42.690;2.586;2023-10-13T06:53:37;12.93;;;11.27;;
30872;SDS011;17579;42.690;2.586;2023-10-13T06:56:12;11.30;;;10.27;;
30872;SDS011;17579;42.690;2.586;2023-10-13T06:58:44;10.60;;;9.60;;
30872;SDS011;17579;42.690;2.586;2023-10-13T07:01:12;11.88;;;10.77;;
30872;SDS011;17579;42.690;2.586;2023-10-13T07:03:43;10.38;;;9.48;;
30872;SDS011;17579;42.690;2.586;2023-10-13T07:06:19;12.68;;;10.90;;
30872;SDS011;17579;42.690;2.586;2023-10-13T07:08:46;10.82;;;9.82;;
30872;SDS011;17579;42.690;2.586;2023-10-13T07:11:27;11.70;;;10.57;;
30872;SDS011;17579;42.690;2.586;2023-10-13T07:14:31;10.98;;;10.00;;
30872;SDS011;17579;42.690;2.586;2023-10-13T07:19:30;11.57;;;10.38;;
30872;SDS011;17579;42.690;2.586;2023-10-13T07:21:57;11.30;;;10.30;;
30872;SDS011;17579;42.690;2.586;2023-10-13T07:24:27;11.30;;;10.27;;
30872;SDS011;17579;42.690;2.586;2023-10-13T07:26:58;10.80;;;9.70;;
30872;SDS011;17579;42.690;2.586;2023-10-13T07:29:24;10.18;;;9.18;;
30872;SDS011;17579;42.690;2.586;2023-10-13T07:31:50;10.57;;;9.57;;
30872;SDS011;17579;42.690;2.586;2023-10-13T07:34:19;10.77;;;9.77;;
30872;SDS011;17579;42.690;2.586;2023-10-13T07:36:47;10.52;;;9.52;;
30872;SDS011;17579;42.690;2.586;2023-10-13T07:39:14;10.38;;;9.27;;
30872;SDS011;17579;42.690;2.586;2023-10-13T07:41:41;10.68;;;9.68;;
30872;SDS011;17579;42.690;2.586;2023-10-13T07:44:09;11.13;;;9.95;;
30872;SDS011;17579;42.690;2.586;2023-10-13T07:46:38;10.13;;;9.07;;
30872;SDS011;17579;42.690;2.586;2023-10-13T07:49:04;10.23;;;9.13;;
30872;SDS011;17579;42.690;2.586;2023-10-13T07:51:30;11.45;;;9.82;;
30872;SDS011;17579;42.690;2.586;2023-10-13T07:53:58;10.20;;;9.27;;
30872;SDS011;17579;42.690;2.586;2023-10-13T07:56:34;10.05;;;9.05;;
30872;SDS011;17579;42.690;2.586;2023-10-13T07:59:04;9.43;;;8.48;;
30872;SDS011;17579;42.690;2.586;2023-10-13T08:01:35;10.02;;;8.95;;
30872;SDS011;17579;42.690;2.586;2023-10-13T08:04:00;9.68;;;8.70;;
30872;SDS011;17579;42.690;2.586;2023-10-13T08:06:27;10.25;;;9.20;;
30872;SDS011;17579;42.690;2.586;2023-10-13T08:09:16;9.70;;;8.63;;
30872;SDS011;17579;42.690;2.586;2023-10-13T08:11:45;10.18;;;9.02;;
30872;SDS011;17579;42.690;2.586;2023-10-13T08:14:10;10.75;;;9.43;;
30872;SDS011;17579;42.690;2.586;2023-10-13T08:16:37;10.05;;;9.13;;
30872;SDS011;17579;42.690;2.586;2023-10-13T08:19:24;10.55;;;9.65;;
30872;SDS011;17579;42.690;2.586;2023-10-13T08:22:11;10.43;;;9.43;;
30872;SDS011;17579;42.690;2.586;2023-10-13T08:24:37;12.65;;;9.73;;
30872;SDS011;17579;42.690;2.586;2023-10-13T08:27:03;10.20;;;9.20;;
30872;SDS011;17579;42.690;2.586;2023-10-13T08:29:30;11.00;;;10.00;;
30872;SDS011;17579;42.690;2.586;2023-10-13T08:32:24;10.90;;;9.90;;
30872;SDS011;17579;42.690;2.586;2023-10-13T08:35:10;12.10;;;10.82;;
30872;SDS011;17579;42.690;2.586;2023-10-13T08:37:51;10.25;;;9.18;;
30872;SDS011;17579;42.690;2.586;2023-10-13T08:40:21;10.18;;;9.23;;
30872;SDS011;17579;42.690;2.586;2023-10-13T08:43:13;12.82;;;10.50;;
30872;SDS011;17579;42.690;2.586;2023-10-13T08:45:55;10.63;;;9.52;;
30872;SDS011;17579;42.690;2.586;2023-10-13T08:51:44;10.32;;;9.25;;
30872;SDS011;17579;42.690;2.586;2023-10-13T08:54:15;10.15;;;9.20;;
30872;SDS011;17579;42.690;2.586;2023-10-13T08:56:45;11.10;;;9.98;;
30872;SDS011;17579;42.690;2.586;2023-10-13T08:59:16;9.60;;;8.60;;
30872;SDS011;17579;42.690;2.586;2023-10-13T09:01:48;10.00;;;9.10;;
30872;SDS011;17579;42.690;2.586;2023-10-13T09:04:26;9.98;;;9.07;;
30872;SDS011;17579;42.690;2.586;2023-10-13T09:07:00;10.45;;;9.55;;
30872;SDS011;17579;42.690;2.586;2023-10-13T09:09:32;9.85;;;8.90;;
30872;SDS011;17579;42.690;2.586;2023-10-13T09:11:59;10.02;;;9.13;;
30872;SDS011;17579;42.690;2.586;2023-10-13T09:14:27;9.50;;;8.60;;
30872;SDS011;17579;42.690;2.586;2023-10-13T09:17:00;9.93;;;8.85;;
30872;SDS011;17579;42.690;2.586;2023-10-13T09:22:25;9.43;;;8.52;;
30872;SDS011;17579;42.690;2.586;2023-10-13T09:25:12;9.80;;;8.90;;
30872;SDS011;17579;42.690;2.586;2023-10-13T09:27:41;10.63;;;9.52;;
30872;SDS011;17579;42.690;2.586;2023-10-13T09:30:16;9.73;;;8.73;;
30872;SDS011;17579;42.690;2.586;2023-10-13T09:32:43;9.73;;;8.85;;
30872;SDS011;17579;42.690;2.586;2023-10-13T09:35:10;12.02;;;9.35;;
30872;SDS011;17579;42.690;2.586;2023-10-13T09:37:48;10.07;;;8.68;;
30872;SDS011;17579;42.690;2.586;2023-10-13T09:40:22;9.45;;;8.55;;
30872;SDS011;17579;42.690;2.586;2023-10-13T09:42:49;8.93;;;8.13;;
30872;SDS011;17579;42.690;2.586;2023-10-13T09:45:15;9.60;;;8.68;;
30872;SDS011;17579;42.690;2.586;2023-10-13T09:47:46;9.85;;;8.85;;
30872;SDS011;17579;42.690;2.586;2023-10-13T09:50:19;10.15;;;9.13;;
30872;SDS011;17579;42.690;2.586;2023-10-13T09:52:48;10.32;;;9.32;;
30872;SDS011;17579;42.690;2.586;2023-10-13T09:55:22;11.70;;;9.45;;
30872;SDS011;17579;42.690;2.586;2023-10-13T09:58:32;9.38;;;8.63;;
30872;SDS011;17579;42.690;2.586;2023-10-13T10:01:22;9.80;;;8.90;;
30872;SDS011;17579;42.690;2.586;2023-10-13T10:04:15;8.80;;;7.88;;
30872;SDS011;17579;42.690;2.586;2023-10-13T10:09:31;8.93;;;8.13;;
30872;SDS011;17579;42.690;2.586;2023-10-13T10:17:41;8.93;;;8.13;;
30872;SDS011;17579;42.690;2.586;2023-10-13T10:20:10;11.00;;;9.02;;
30872;SDS011;17579;42.690;2.586;2023-10-13T10:22:37;9.45;;;8.57;;
30872;SDS011;17579;42.690;2.586;2023-10-13T10:25:03;11.90;;;8.77;;
30872;SDS011;17579;42.690;2.586;2023-10-13T10:27:55;10.20;;;9.23;;
30872;SDS011;17579;42.690;2.586;2023-10-13T10:30:26;9.38;;;8.40;;
30872;SDS011;17579;42.690;2.586;2023-10-13T10:32:54;9.40;;;8.50;;
30872;SDS011;17579;42.690;2.586;2023-10-13T10:35:23;10.13;;;8.45;;
30872;SDS011;17579;42.690;2.586;2023-10-13T10:37:48;8.75;;;7.95;;
30872;SDS011;17579;42.690;2.586;2023-10-13T10:40:20;10.55;;;9.00;;
30872;SDS011;17579;42.690;2.586;2023-10-13T10:42:50;10.15;;;8.43;;
30872;SDS011;17579;42.690;2.586;2023-10-13T10:45:17;9.77;;;8.77;;
30872;SDS011;17579;42.690;2.586;2023-10-13T10:47:48;9.57;;;8.70;;
30872;SDS011;17579;42.690;2.586;2023-10-13T10:50:13;9.07;;;8.27;;
30872;SDS011;17579;42.690;2.586;2023-10-13T10:56:10;11.45;;;9.73;;
30872;SDS011;17579;42.690;2.586;2023-10-13T10:58:37;11.30;;;9.10;;
30872;SDS011;17579;42.690;2.586;2023-10-13T11:01:12;10.65;;;8.93;;
30872;SDS011;17579;42.690;2.586;2023-10-13T11:06:31;10.18;;;9.20;;
30872;SDS011;17579;42.690;2.586;2023-10-13T11:09:11;10.18;;;9.25;;
30872;SDS011;17579;42.690;2.586;2023-10-13T11:17:33;9.20;;;8.40;;
30872;SDS011;17579;42.690;2.586;2023-10-13T11:20:25;8.25;;;7.45;;
30872;SDS011;17579;42.690;2.586;2023-10-13T11:23:00;14.07;;;8.85;;
30872;SDS011;17579;42.690;2.586;2023-10-13T11:25:30;9.02;;;8.18;;
30872;SDS011;17579;42.690;2.586;2023-10-13T11:30:32;8.93;;;8.02;;
30872;SDS011;17579;42.690;2.586;2023-10-13T11:33:02;9.13;;;8.30;;
30872;SDS011;17579;42.690;2.586;2023-10-13T11:35:31;8.50;;;7.70;;
30872;SDS011;17579;42.690;2.586;2023-10-13T11:38:05;10.68;;;8.60;;
30872;SDS011;17579;42.690;2.586;2023-10-13T11:40:34;8.68;;;7.80;;
30872;SDS011;17579;42.690;2.586;2023-10-13T11:43:01;8.25;;;7.45;;
30872;SDS011;17579;42.690;2.586;2023-10-13T11:45:31;10.80;;;8.32;;
30872;SDS011;17579;42.690;2.586;2023-10-13T11:47:57;10.10;;;7.93;;
30872;SDS011;17579;42.690;2.586;2023-10-13T11:50:25;10.38;;;8.18;;
30872;SDS011;17579;42.690;2.586;2023-10-13T11:52:51;8.68;;;7.63;;
30872;SDS011;17579;42.690;2.586;2023-10-13T11:55:17;8.77;;;7.65;;
30872;SDS011;17579;42.690;2.586;2023-10-13T11:57:49;10.27;;;9.27;;
30872;SDS011;17579;42.690;2.586;2023-10-13T12:00:17;8.27;;;7.57;;
30872;SDS011;17579;42.690;2.586;2023-10-13T12:02:44;8.27;;;7.47;;
30872;SDS011;17579;42.690;2.586;2023-10-13T12:05:21;8.85;;;7.78;;
30872;SDS011;17579;42.690;2.586;2023-10-13T12:07:55;10.00;;;8.15;;
30872;SDS011;17579;42.690;2.586;2023-10-13T12:10:41;9.32;;;7.78;;
30872;SDS011;17579;42.690;2.586;2023-10-13T12:13:14;7.88;;;7.05;;
30872;SDS011;17579;42.690;2.586;2023-10-13T12:15:42;8.10;;;7.40;;
30872;SDS011;17579;42.690;2.586;2023-10-13T12:18:11;10.95;;;7.75;;
30872;SDS011;17579;42.690;2.586;2023-10-13T12:20:40;9.27;;;8.35;;
30872;SDS011;17579;42.690;2.586;2023-10-13T12:23:11;8.05;;;7.35;;
30872;SDS011;17579;42.690;2.586;2023-10-13T12:25:40;8.48;;;7.68;;
30872;SDS011;17579;42.690;2.586;2023-10-13T12:28:15;11.45;;;9.10;;
30872;SDS011;17579;42.690;2.586;2023-10-13T12:30:41;10.65;;;8.10;;
30872;SDS011;17579;42.690;2.586;2023-10-13T12:33:14;10.95;;;7.38;;
30872;SDS011;17579;42.690;2.586;2023-10-13T12:35:47;9.02;;;7.97;;
30872;SDS011;17579;42.690;2.586;2023-10-13T12:38:16;9.95;;;8.00;;
30872;SDS011;17579;42.690;2.586;2023-10-13T12:40:45;8.35;;;7.60;;
30872;SDS011;17579;42.690;2.586;2023-10-13T12:43:14;8.75;;;7.88;;
30872;SDS011;17579;42.690;2.586;2023-10-13T12:45:41;8.15;;;7.38;;
30872;SDS011;17579;42.690;2.586;2023-10-13T12:48:08;11.25;;;7.78;;
30872;SDS011;17579;42.690;2.586;2023-10-13T12:50:37;8.45;;;7.03;;
30872;SDS011;17579;42.690;2.586;2023-10-13T12:53:03;10.10;;;7.72;;
30872;SDS011;17579;42.690;2.586;2023-10-13T12:55:29;8.00;;;7.30;;
30872;SDS011;17579;42.690;2.586;2023-10-13T12:57:55;8.85;;;7.70;;
30872;SDS011;17579;42.690;2.586;2023-10-13T13:00:20;8.27;;;7.53;;
30872;SDS011;17579;42.690;2.586;2023-10-13T13:02:48;8.63;;;7.82;;
30872;SDS011;17579;42.690;2.586;2023-10-13T13:05:38;7.97;;;6.97;;
30872;SDS011;17579;42.690;2.586;2023-10-13T13:08:27;8.52;;;7.70;;
30872;SDS011;17579;42.690;2.586;2023-10-13T13:11:00;7.78;;;6.97;;
30872;SDS011;17579;42.690;2.586;2023-10-13T13:13:44;8.20;;;7.50;;
30872;SDS011;17579;42.690;2.586;2023-10-13T13:16:13;7.22;;;6.53;;
30872;SDS011;17579;42.690;2.586;2023-10-13T13:22:10;8.65;;;7.57;;
30872;SDS011;17579;42.690;2.586;2023-10-13T13:24:36;8.55;;;6.55;;
30872;SDS011;17579;42.690;2.586;2023-10-13T13:27:53;8.00;;;6.97;;
30872;SDS011;17579;42.690;2.586;2023-10-13T13:29:56;8.20;;;7.13;;
30872;SDS011;17579;42.690;2.586;2023-10-13T13:32:21;8.63;;;7.68;;
30872;SDS011;17579;42.690;2.586;2023-10-13T13:34:48;8.75;;;7.85;;
30872;SDS011;17579;42.690;2.586;2023-10-13T13:37:14;7.95;;;7.25;;
30872;SDS011;17579;42.690;2.586;2023-10-13T13:39:43;8.57;;;7.70;;
30872;SDS011;17579;42.690;2.586;2023-10-13T13:42:18;10.18;;;8.02;;
30872;SDS011;17579;42.690;2.586;2023-10-13T13:44:47;7.82;;;7.03;;
30872;SDS011;17579;42.690;2.586;2023-10-13T13:47:13;7.97;;;7.15;;
30872;SDS011;17579;42.690;2.586;2023-10-13T13:49:42;7.03;;;6.43;;
30872;SDS011;17579;42.690;2.586;2023-10-13T13:52:08;7.50;;;6.40;;
30872;SDS011;17579;42.690;2.586;2023-10-13T13:54:42;7.78;;;7.07;;
30872;SDS011;17579;42.690;2.586;2023-10-13T13:59:59;7.15;;;6.55;;
30872;SDS011;17579;42.690;2.586;2023-10-13T14:02:25;8.38;;;7.03;;
30872;SDS011;17579;42.690;2.586;2023-10-13T14:04:53;7.57;;;6.88;;
30872;SDS011;17579;42.690;2.586;2023-10-13T14:07:41;7.28;;;6.50;;
30872;SDS011;17579;42.690;2.586;2023-10-13T14:10:19;7.38;;;6.68;;
30872;SDS011;17579;42.690;2.586;2023-10-13T14:13:04;6.65;;;6.05;;
30872;SDS011;17579;42.690;2.586;2023-10-13T14:15:31;7.80;;;6.43;;
30872;SDS011;17579;42.690;2.586;2023-10-13T14:18:04;8.13;;;6.15;;
30872;SDS011;17579;42.690;2.586;2023-10-13T14:20:37;6.88;;;6.28;;
30872;SDS011;17579;42.690;2.586;2023-10-13T14:23:05;6.95;;;6.35;;
30872;SDS011;17579;42.690;2.586;2023-10-13T14:25:38;5.93;;;5.43;;
30872;SDS011;17579;42.690;2.586;2023-10-13T14:28:09;8.70;;;5.47;;
30872;SDS011;17579;42.690;2.586;2023-10-13T14:30:43;6.53;;;5.93;;
30872;SDS011;17579;42.690;2.586;2023-10-13T14:33:09;7.18;;;5.95;;
30872;SDS011;17579;42.690;2.586;2023-10-13T14:35:36;6.25;;;5.57;;
30872;SDS011;17579;42.690;2.586;2023-10-13T14:38:02;6.13;;;5.60;;
30872;SDS011;17579;42.690;2.586;2023-10-13T14:40:31;5.63;;;5.22;;
30872;SDS011;17579;42.690;2.586;2023-10-13T14:43:04;6.10;;;5.50;;
30872;SDS011;17579;42.690;2.586;2023-10-13T14:48:15;5.63;;;5.22;;
30872;SDS011;17579;42.690;2.586;2023-10-13T14:50:43;6.07;;;5.47;;
30872;SDS011;17579;42.690;2.586;2023-10-13T14:53:10;6.10;;;5.50;;
30872;SDS011;17579;42.690;2.586;2023-10-13T14:55:50;5.90;;;5.40;;
30872;SDS011;17579;42.690;2.586;2023-10-13T14:58:16;5.63;;;5.07;;
30872;SDS011;17579;42.690;2.586;2023-10-13T15:00:45;5.93;;;5.43;;
30872;SDS011;17579;42.690;2.586;2023-10-13T15:03:11;7.30;;;5.05;;
30872;SDS011;17579;42.690;2.586;2023-10-13T15:05:40;7.47;;;5.78;;
30872;SDS011;17579;42.690;2.586;2023-10-13T15:11:08;8.82;;;5.90;;
30872;SDS011;17579;42.690;2.586;2023-10-13T15:13:47;5.90;;;5.38;;
30872;SDS011;17579;42.690;2.586;2023-10-13T15:16:22;5.85;;;5.35;;
30872;SDS011;17579;42.690;2.586;2023-10-13T15:21:55;7.80;;;5.25;;
30872;SDS011;17579;42.690;2.586;2023-10-13T15:24:23;8.05;;;5.93;;
30872;SDS011;17579;42.690;2.586;2023-10-13T15:27:18;6.22;;;5.28;;
30872;SDS011;17579;42.690;2.586;2023-10-13T15:29:46;6.55;;;5.57;;
30872;SDS011;17579;42.690;2.586;2023-10-13T15:32:16;6.53;;;5.93;;
30872;SDS011;17579;42.690;2.586;2023-10-13T15:34:42;9.30;;;6.30;;
30872;SDS011;17579;42.690;2.586;2023-10-13T15:37:13;9.85;;;6.28;;
30872;SDS011;17579;42.690;2.586;2023-10-13T15:39:40;6.47;;;5.65;;
30872;SDS011;17579;42.690;2.586;2023-10-13T15:42:06;7.80;;;6.00;;
30872;SDS011;17579;42.690;2.586;2023-10-13T15:44:33;7.65;;;6.22;;
30872;SDS011;17579;42.690;2.586;2023-10-13T15:47:02;7.53;;;5.72;;
30872;SDS011;17579;42.690;2.586;2023-10-13T15:49:29;7.80;;;5.78;;
30872;SDS011;17579;42.690;2.586;2023-10-13T15:51:58;6.38;;;5.78;;
30872;SDS011;17579;42.690;2.586;2023-10-13T15:54:47;9.85;;;5.82;;
30872;SDS011;17579;42.690;2.586;2023-10-13T15:57:12;9.65;;;6.20;;
30872;SDS011;17579;42.690;2.586;2023-10-13T15:59:41;6.15;;;5.60;;
30872;SDS011;17579;42.690;2.586;2023-10-13T16:02:11;8.50;;;6.03;;
30872;SDS011;17579;42.690;2.586;2023-10-13T16:04:51;7.03;;;6.03;;
30872;SDS011;17579;42.690;2.586;2023-10-13T16:07:25;6.43;;;5.82;;
30872;SDS011;17579;42.690;2.586;2023-10-13T16:09:54;7.65;;;5.80;;
30872;SDS011;17579;42.690;2.586;2023-10-13T16:12:22;6.75;;;6.07;;
30872;SDS011;17579;42.690;2.586;2023-10-13T16:14:50;8.32;;;5.55;;